sensor_id;sensor_type;location;lat;lon;timestamp;P1;durP1;ratioP1;P2;durP2;ratioP2
40675;SDS011;26359;48.750;9.314;2023-01-10T00:00:19;4.38;;;4.07;;
40675;SDS011;26359;48.750;9.314;2023-01-10T00:02:45;3.47;;;3.20;;
40675;SDS011;26359;48.750;9.314;2023-01-10T00:05:11;6.38;;;4.05;;
40675;SDS011;26359;48.750;9.314;2023-01-10T00:07:36;6.40;;;3.97;;
40675;SDS011;26359;48.750;9.314;2023-01-10T00:10:02;4.80;;;3.00;;
40675;SDS011;26359;48.750;9.314;2023-01-10T00:12:28;3.63;;;3.30;;
40675;SDS011;26359;48.750;9.314;2023-01-10T00:15:11;3.88;;;3.53;;
40675;SDS011;26359;48.750;9.314;2023-01-10T00:17:37;8.95;;;8.43;;
40675;SDS011;26359;48.750;9.314;2023-01-10T00:20:03;7.72;;;7.32;;
40675;SDS011;26359;48.750;9.314;2023-01-10T00:22:28;3.83;;;3.53;;
40675;SDS011;26359;48.750;9.314;2023-01-10T00:24:54;4.35;;;4.05;;
40675;SDS011;26359;48.750;9.314;2023-01-10T00:27:19;3.40;;;3.10;;
40675;SDS011;26359;48.750;9.314;2023-01-10T00:29:46;3.20;;;3.00;;
40675;SDS011;26359;48.750;9.314;2023-01-10T00:32:14;4.22;;;3.38;;
40675;SDS011;26359;48.750;9.314;2023-01-10T00:34:39;3.85;;;3.55;;
40675;SDS011;26359;48.750;9.314;2023-01-10T00:37:05;4.43;;;4.03;;
40675;SDS011;26359;48.750;9.314;2023-01-10T00:39:30;7.75;;;7.13;;
40675;SDS011;26359;48.750;9.314;2023-01-10T00:41:56;4.00;;;3.65;;
40675;SDS011;26359;48.750;9.314;2023-01-10T00:44:40;3.28;;;3.05;;
40675;SDS011;26359;48.750;9.314;2023-01-10T00:47:05;9.45;;;8.82;;
40675;SDS011;26359;48.750;9.314;2023-01-10T00:49:31;3.40;;;3.20;;
40675;SDS011;26359;48.750;9.314;2023-01-10T00:51:56;3.25;;;3.05;;
40675;SDS011;26359;48.750;9.314;2023-01-10T00:54:23;4.03;;;3.72;;
40675;SDS011;26359;48.750;9.314;2023-01-10T00:56:49;3.63;;;3.42;;
40675;SDS011;26359;48.750;9.314;2023-01-10T00:59:15;4.18;;;3.95;;
40675;SDS011;26359;48.750;9.314;2023-01-10T01:01:40;6.13;;;5.72;;
40675;SDS011;26359;48.750;9.314;2023-01-10T01:04:06;4.95;;;4.72;;
40675;SDS011;26359;48.750;9.314;2023-01-10T01:06:31;2.22;;;1.98;;
40675;SDS011;26359;48.750;9.314;2023-01-10T01:08:57;5.70;;;5.40;;
40675;SDS011;26359;48.750;9.314;2023-01-10T01:11:22;7.18;;;6.78;;
40675;SDS011;26359;48.750;9.314;2023-01-10T01:13:48;5.57;;;5.28;;
40675;SDS011;26359;48.750;9.314;2023-01-10T01:16:14;5.10;;;4.70;;
40675;SDS011;26359;48.750;9.314;2023-01-10T01:18:39;3.40;;;3.20;;
40675;SDS011;26359;48.750;9.314;2023-01-10T01:21:05;3.28;;;3.13;;
40675;SDS011;26359;48.750;9.314;2023-01-10T01:23:32;2.72;;;2.53;;
40675;SDS011;26359;48.750;9.314;2023-01-10T01:25:59;4.18;;;3.78;;
40675;SDS011;26359;48.750;9.314;2023-01-10T01:28:26;3.00;;;2.78;;
40675;SDS011;26359;48.750;9.314;2023-01-10T01:30:51;6.72;;;6.43;;
40675;SDS011;26359;48.750;9.314;2023-01-10T01:33:17;4.00;;;3.80;;
40675;SDS011;26359;48.750;9.314;2023-01-10T01:35:44;5.03;;;4.63;;
40675;SDS011;26359;48.750;9.314;2023-01-10T01:38:10;3.92;;;3.58;;
40675;SDS011;26359;48.750;9.314;2023-01-10T01:40:36;4.57;;;4.32;;
40675;SDS011;26359;48.750;9.314;2023-01-10T01:43:03;3.45;;;3.22;;
40675;SDS011;26359;48.750;9.314;2023-01-10T01:45:36;3.92;;;3.63;;
40675;SDS011;26359;48.750;9.314;2023-01-10T01:48:12;3.50;;;3.20;;
40675;SDS011;26359;48.750;9.314;2023-01-10T01:53:18;3.80;;;3.47;;
40675;SDS011;26359;48.750;9.314;2023-01-10T01:55:56;3.05;;;2.67;;
40675;SDS011;26359;48.750;9.314;2023-01-10T01:58:27;10.57;;;9.95;;
40675;SDS011;26359;48.750;9.314;2023-01-10T02:01:08;8.88;;;8.35;;
40675;SDS011;26359;48.750;9.314;2023-01-10T02:03:35;11.63;;;10.98;;
40675;SDS011;26359;48.750;9.314;2023-01-10T02:06:03;9.10;;;8.60;;
40675;SDS011;26359;48.750;9.314;2023-01-10T02:08:29;24.42;;;23.13;;
40675;SDS011;26359;48.750;9.314;2023-01-10T02:11:07;19.95;;;18.85;;
40675;SDS011;26359;48.750;9.314;2023-01-10T02:13:36;13.93;;;13.20;;
40675;SDS011;26359;48.750;9.314;2023-01-10T02:16:05;16.50;;;15.60;;
40675;SDS011;26359;48.750;9.314;2023-01-10T02:18:31;18.13;;;17.15;;
40675;SDS011;26359;48.750;9.314;2023-01-10T02:21:04;16.33;;;15.48;;
40675;SDS011;26359;48.750;9.314;2023-01-10T02:23:57;14.57;;;13.68;;
40675;SDS011;26359;48.750;9.314;2023-01-10T02:29:17;8.45;;;8.05;;
40675;SDS011;26359;48.750;9.314;2023-01-10T02:34:58;5.25;;;4.85;;
40675;SDS011;26359;48.750;9.314;2023-01-10T02:40:20;16.88;;;15.90;;
40675;SDS011;26359;48.750;9.314;2023-01-10T02:45:35;2.60;;;2.40;;
40675;SDS011;26359;48.750;9.314;2023-01-10T02:48:14;1.73;;;1.63;;
40675;SDS011;26359;48.750;9.314;2023-01-10T02:53:09;2.85;;;2.65;;
40675;SDS011;26359;48.750;9.314;2023-01-10T03:01:53;2.20;;;2.08;;
40675;SDS011;26359;48.750;9.314;2023-01-10T03:07:10;3.05;;;2.95;;
40675;SDS011;26359;48.750;9.314;2023-01-10T03:09:51;3.67;;;3.38;;
40675;SDS011;26359;48.750;9.314;2023-01-10T03:14:57;3.15;;;2.95;;
40675;SDS011;26359;48.750;9.314;2023-01-10T03:17:24;3.22;;;2.90;;
40675;SDS011;26359;48.750;9.314;2023-01-10T03:19:52;2.58;;;1.98;;
40675;SDS011;26359;48.750;9.314;2023-01-10T03:22:21;4.97;;;4.57;;
40675;SDS011;26359;48.750;9.314;2023-01-10T03:24:49;6.00;;;5.57;;
40675;SDS011;26359;48.750;9.314;2023-01-10T03:27:23;3.40;;;2.03;;
40675;SDS011;26359;48.750;9.314;2023-01-10T03:32:57;4.18;;;2.95;;
40675;SDS011;26359;48.750;9.314;2023-01-10T03:35:28;4.53;;;4.10;;
40675;SDS011;26359;48.750;9.314;2023-01-10T03:38:34;3.33;;;3.03;;
40675;SDS011;26359;48.750;9.314;2023-01-10T03:41:11;6.85;;;6.20;;
40675;SDS011;26359;48.750;9.314;2023-01-10T03:43:45;5.63;;;4.15;;
40675;SDS011;26359;48.750;9.314;2023-01-10T03:46:50;4.68;;;3.10;;
40675;SDS011;26359;48.750;9.314;2023-01-10T03:49:22;6.30;;;4.43;;
40675;SDS011;26359;48.750;9.314;2023-01-10T03:51:50;5.57;;;4.65;;
40675;SDS011;26359;48.750;9.314;2023-01-10T03:54:17;8.85;;;6.47;;
40675;SDS011;26359;48.750;9.314;2023-01-10T03:56:44;10.88;;;8.25;;
40675;SDS011;26359;48.750;9.314;2023-01-10T03:59:17;8.07;;;6.90;;
40675;SDS011;26359;48.750;9.314;2023-01-10T04:01:45;6.07;;;4.30;;
40675;SDS011;26359;48.750;9.314;2023-01-10T04:04:10;5.72;;;4.20;;
40675;SDS011;26359;48.750;9.314;2023-01-10T04:06:36;5.53;;;4.20;;
40675;SDS011;26359;48.750;9.314;2023-01-10T04:09:01;5.65;;;4.63;;
40675;SDS011;26359;48.750;9.314;2023-01-10T04:11:27;5.57;;;3.42;;
40675;SDS011;26359;48.750;9.314;2023-01-10T04:13:53;7.35;;;3.50;;
40675;SDS011;26359;48.750;9.314;2023-01-10T04:16:18;5.28;;;3.40;;
40675;SDS011;26359;48.750;9.314;2023-01-10T04:18:44;4.82;;;2.85;;
40675;SDS011;26359;48.750;9.314;2023-01-10T04:21:09;4.43;;;3.03;;
40675;SDS011;26359;48.750;9.314;2023-01-10T04:23:35;7.57;;;4.03;;
40675;SDS011;26359;48.750;9.314;2023-01-10T04:26:01;5.93;;;4.43;;
40675;SDS011;26359;48.750;9.314;2023-01-10T04:28:26;7.53;;;3.97;;
40675;SDS011;26359;48.750;9.314;2023-01-10T04:30:52;7.07;;;4.72;;
40675;SDS011;26359;48.750;9.314;2023-01-10T04:33:17;6.13;;;4.13;;
40675;SDS011;26359;48.750;9.314;2023-01-10T04:35:47;6.45;;;5.53;;
40675;SDS011;26359;48.750;9.314;2023-01-10T04:38:13;7.68;;;6.55;;
40675;SDS011;26359;48.750;9.314;2023-01-10T04:40:39;8.38;;;7.55;;
40675;SDS011;26359;48.750;9.314;2023-01-10T04:43:05;10.38;;;9.70;;
40675;SDS011;26359;48.750;9.314;2023-01-10T04:45:30;11.68;;;10.85;;
40675;SDS011;26359;48.750;9.314;2023-01-10T04:47:56;8.75;;;7.95;;
40675;SDS011;26359;48.750;9.314;2023-01-10T04:50:23;8.13;;;7.53;;
40675;SDS011;26359;48.750;9.314;2023-01-10T04:52:48;8.93;;;8.15;;
40675;SDS011;26359;48.750;9.314;2023-01-10T04:55:14;6.15;;;4.57;;
40675;SDS011;26359;48.750;9.314;2023-01-10T04:57:39;7.28;;;4.63;;
40675;SDS011;26359;48.750;9.314;2023-01-10T05:00:05;12.55;;;11.75;;
40675;SDS011;26359;48.750;9.314;2023-01-10T05:02:32;13.00;;;7.65;;
40675;SDS011;26359;48.750;9.314;2023-01-10T05:04:57;11.27;;;9.32;;
40675;SDS011;26359;48.750;9.314;2023-01-10T05:07:23;9.32;;;8.60;;
40675;SDS011;26359;48.750;9.314;2023-01-10T05:09:48;7.05;;;4.53;;
40675;SDS011;26359;48.750;9.314;2023-01-10T05:12:14;5.95;;;4.47;;
40675;SDS011;26359;48.750;9.314;2023-01-10T05:14:39;6.25;;;4.43;;
40675;SDS011;26359;48.750;9.314;2023-01-10T05:17:05;6.43;;;3.80;;
40675;SDS011;26359;48.750;9.314;2023-01-10T05:19:30;8.82;;;4.43;;
40675;SDS011;26359;48.750;9.314;2023-01-10T05:21:56;8.15;;;3.67;;
40675;SDS011;26359;48.750;9.314;2023-01-10T05:24:22;6.65;;;4.18;;
40675;SDS011;26359;48.750;9.314;2023-01-10T05:26:47;4.75;;;3.65;;
40675;SDS011;26359;48.750;9.314;2023-01-10T05:29:13;9.90;;;4.35;;
40675;SDS011;26359;48.750;9.314;2023-01-10T05:31:39;8.02;;;4.47;;
40675;SDS011;26359;48.750;9.314;2023-01-10T05:34:04;9.70;;;4.47;;
40675;SDS011;26359;48.750;9.314;2023-01-10T05:36:30;6.82;;;4.35;;
40675;SDS011;26359;48.750;9.314;2023-01-10T05:38:55;12.82;;;4.80;;
40675;SDS011;26359;48.750;9.314;2023-01-10T05:41:21;9.52;;;4.15;;
40675;SDS011;26359;48.750;9.314;2023-01-10T05:43:47;13.00;;;4.07;;
40675;SDS011;26359;48.750;9.314;2023-01-10T05:46:14;8.23;;;4.10;;
40675;SDS011;26359;48.750;9.314;2023-01-10T05:48:40;11.10;;;4.35;;
40675;SDS011;26359;48.750;9.314;2023-01-10T05:51:05;8.88;;;3.88;;
40675;SDS011;26359;48.750;9.314;2023-01-10T05:53:31;10.85;;;6.00;;
40675;SDS011;26359;48.750;9.314;2023-01-10T05:55:58;9.73;;;4.95;;
40675;SDS011;26359;48.750;9.314;2023-01-10T05:58:25;10.93;;;5.05;;
40675;SDS011;26359;48.750;9.314;2023-01-10T06:00:52;9.10;;;6.15;;
40675;SDS011;26359;48.750;9.314;2023-01-10T06:03:19;11.63;;;5.38;;
40675;SDS011;26359;48.750;9.314;2023-01-10T06:05:44;11.13;;;5.45;;
40675;SDS011;26359;48.750;9.314;2023-01-10T06:08:10;13.23;;;5.35;;
40675;SDS011;26359;48.750;9.314;2023-01-10T06:10:36;11.43;;;5.53;;
40675;SDS011;26359;48.750;9.314;2023-01-10T06:13:01;9.80;;;6.05;;
40675;SDS011;26359;48.750;9.314;2023-01-10T06:15:29;11.43;;;6.25;;
40675;SDS011;26359;48.750;9.314;2023-01-10T06:17:54;11.48;;;7.22;;
40675;SDS011;26359;48.750;9.314;2023-01-10T06:20:20;12.50;;;6.80;;
40675;SDS011;26359;48.750;9.314;2023-01-10T06:22:45;14.93;;;8.15;;
40675;SDS011;26359;48.750;9.314;2023-01-10T06:25:11;15.95;;;8.82;;
40675;SDS011;26359;48.750;9.314;2023-01-10T06:27:41;16.58;;;11.00;;
40675;SDS011;26359;48.750;9.314;2023-01-10T06:30:08;12.48;;;8.40;;
40675;SDS011;26359;48.750;9.314;2023-01-10T06:32:35;11.98;;;7.50;;
40675;SDS011;26359;48.750;9.314;2023-01-10T06:35:01;12.68;;;6.68;;
40675;SDS011;26359;48.750;9.314;2023-01-10T06:37:26;12.70;;;6.93;;
40675;SDS011;26359;48.750;9.314;2023-01-10T06:39:52;13.43;;;6.35;;
40675;SDS011;26359;48.750;9.314;2023-01-10T06:42:17;13.48;;;5.43;;
40675;SDS011;26359;48.750;9.314;2023-01-10T06:44:43;16.15;;;7.43;;
40675;SDS011;26359;48.750;9.314;2023-01-10T06:47:08;14.52;;;6.65;;
40675;SDS011;26359;48.750;9.314;2023-01-10T06:49:34;13.23;;;6.45;;
40675;SDS011;26359;48.750;9.314;2023-01-10T06:51:59;10.63;;;6.95;;
40675;SDS011;26359;48.750;9.314;2023-01-10T06:54:25;10.73;;;6.22;;
40675;SDS011;26359;48.750;9.314;2023-01-10T06:56:51;12.60;;;7.07;;
40675;SDS011;26359;48.750;9.314;2023-01-10T06:59:16;9.05;;;7.25;;
40675;SDS011;26359;48.750;9.314;2023-01-10T07:01:42;13.85;;;9.30;;
40675;SDS011;26359;48.750;9.314;2023-01-10T07:04:07;13.57;;;10.52;;
40675;SDS011;26359;48.750;9.314;2023-01-10T07:06:36;11.75;;;6.93;;
40675;SDS011;26359;48.750;9.314;2023-01-10T07:09:03;13.10;;;9.10;;
40675;SDS011;26359;48.750;9.314;2023-01-10T07:11:30;12.07;;;8.23;;
40675;SDS011;26359;48.750;9.314;2023-01-10T07:13:56;11.00;;;8.82;;
40675;SDS011;26359;48.750;9.314;2023-01-10T07:16:22;12.27;;;7.50;;
40675;SDS011;26359;48.750;9.314;2023-01-10T07:18:47;10.15;;;7.18;;
40675;SDS011;26359;48.750;9.314;2023-01-10T07:21:13;11.10;;;5.90;;
40675;SDS011;26359;48.750;9.314;2023-01-10T07:23:39;13.25;;;7.07;;
40675;SDS011;26359;48.750;9.314;2023-01-10T07:26:06;11.85;;;7.32;;
40675;SDS011;26359;48.750;9.314;2023-01-10T07:28:34;9.35;;;8.32;;
40675;SDS011;26359;48.750;9.314;2023-01-10T07:31:00;13.02;;;8.93;;
40675;SDS011;26359;48.750;9.314;2023-01-10T07:33:27;12.57;;;8.40;;
40675;SDS011;26359;48.750;9.314;2023-01-10T07:35:53;9.80;;;7.32;;
40675;SDS011;26359;48.750;9.314;2023-01-10T07:38:19;12.20;;;9.02;;
40675;SDS011;26359;48.750;9.314;2023-01-10T07:40:44;13.43;;;9.50;;
40675;SDS011;26359;48.750;9.314;2023-01-10T07:43:10;9.15;;;7.95;;
40675;SDS011;26359;48.750;9.314;2023-01-10T07:45:35;11.13;;;8.57;;
40675;SDS011;26359;48.750;9.314;2023-01-10T07:48:02;10.68;;;7.68;;
40675;SDS011;26359;48.750;9.314;2023-01-10T07:50:29;9.50;;;8.23;;
40675;SDS011;26359;48.750;9.314;2023-01-10T07:52:58;13.55;;;6.40;;
40675;SDS011;26359;48.750;9.314;2023-01-10T07:55:24;12.27;;;8.13;;
40675;SDS011;26359;48.750;9.314;2023-01-10T07:57:50;13.82;;;8.05;;
40675;SDS011;26359;48.750;9.314;2023-01-10T08:00:17;12.95;;;6.82;;
40675;SDS011;26359;48.750;9.314;2023-01-10T08:02:43;13.45;;;8.30;;
40675;SDS011;26359;48.750;9.314;2023-01-10T08:05:09;10.02;;;8.45;;
40675;SDS011;26359;48.750;9.314;2023-01-10T08:07:35;8.98;;;8.10;;
40675;SDS011;26359;48.750;9.314;2023-01-10T08:10:00;14.95;;;8.15;;
40675;SDS011;26359;48.750;9.314;2023-01-10T08:12:26;9.52;;;8.48;;
40675;SDS011;26359;48.750;9.314;2023-01-10T08:14:51;10.73;;;8.32;;
40675;SDS011;26359;48.750;9.314;2023-01-10T08:17:17;16.23;;;6.15;;
40675;SDS011;26359;48.750;9.314;2023-01-10T08:19:43;8.90;;;4.80;;
40675;SDS011;26359;48.750;9.314;2023-01-10T08:22:09;9.80;;;5.45;;
40675;SDS011;26359;48.750;9.314;2023-01-10T08:24:35;10.50;;;5.13;;
40675;SDS011;26359;48.750;9.314;2023-01-10T08:27:00;10.38;;;5.20;;
40675;SDS011;26359;48.750;9.314;2023-01-10T08:29:27;10.40;;;7.05;;
40675;SDS011;26359;48.750;9.314;2023-01-10T08:31:53;11.10;;;6.80;;
40675;SDS011;26359;48.750;9.314;2023-01-10T08:34:19;9.80;;;5.22;;
40675;SDS011;26359;48.750;9.314;2023-01-10T08:36:44;11.27;;;6.03;;
40675;SDS011;26359;48.750;9.314;2023-01-10T08:39:13;11.00;;;8.38;;
40675;SDS011;26359;48.750;9.314;2023-01-10T08:41:39;11.32;;;7.88;;
40675;SDS011;26359;48.750;9.314;2023-01-10T08:44:05;10.40;;;8.00;;
40675;SDS011;26359;48.750;9.314;2023-01-10T08:46:30;14.77;;;7.65;;
40675;SDS011;26359;48.750;9.314;2023-01-10T08:48:56;13.63;;;10.95;;
40675;SDS011;26359;48.750;9.314;2023-01-10T08:51:21;12.65;;;9.45;;
40675;SDS011;26359;48.750;9.314;2023-01-10T08:53:47;11.43;;;10.23;;
40675;SDS011;26359;48.750;9.314;2023-01-10T08:56:12;14.55;;;9.60;;
40675;SDS011;26359;48.750;9.314;2023-01-10T08:58:38;11.60;;;7.65;;
40675;SDS011;26359;48.750;9.314;2023-01-10T09:01:04;9.50;;;7.10;;
40675;SDS011;26359;48.750;9.314;2023-01-10T09:03:30;10.07;;;7.78;;
40675;SDS011;26359;48.750;9.314;2023-01-10T09:06:00;13.80;;;8.38;;
40675;SDS011;26359;48.750;9.314;2023-01-10T09:08:26;14.20;;;11.27;;
40675;SDS011;26359;48.750;9.314;2023-01-10T09:10:52;10.60;;;7.32;;
40675;SDS011;26359;48.750;9.314;2023-01-10T09:13:17;13.07;;;9.30;;
40675;SDS011;26359;48.750;9.314;2023-01-10T09:15:44;10.68;;;7.90;;
40675;SDS011;26359;48.750;9.314;2023-01-10T09:18:10;14.25;;;6.03;;
40675;SDS011;26359;48.750;9.314;2023-01-10T09:20:37;15.07;;;6.35;;
40675;SDS011;26359;48.750;9.314;2023-01-10T09:23:05;11.95;;;6.40;;
40675;SDS011;26359;48.750;9.314;2023-01-10T09:25:32;12.02;;;7.30;;
40675;SDS011;26359;48.750;9.314;2023-01-10T09:27:59;11.80;;;6.18;;
40675;SDS011;26359;48.750;9.314;2023-01-10T09:30:26;14.10;;;6.65;;
40675;SDS011;26359;48.750;9.314;2023-01-10T09:32:53;9.73;;;6.85;;
40675;SDS011;26359;48.750;9.314;2023-01-10T09:35:19;9.80;;;6.53;;
40675;SDS011;26359;48.750;9.314;2023-01-10T09:37:46;9.90;;;7.13;;
40675;SDS011;26359;48.750;9.314;2023-01-10T09:40:12;9.05;;;6.85;;
40675;SDS011;26359;48.750;9.314;2023-01-10T09:45:24;11.20;;;6.20;;
40675;SDS011;26359;48.750;9.314;2023-01-10T09:47:59;11.60;;;10.40;;
40675;SDS011;26359;48.750;9.314;2023-01-10T09:53:14;12.60;;;8.88;;
40675;SDS011;26359;48.750;9.314;2023-01-10T09:55:51;12.07;;;8.75;;
40675;SDS011;26359;48.750;9.314;2023-01-10T09:58:23;15.35;;;9.95;;
40675;SDS011;26359;48.750;9.314;2023-01-10T10:00:56;11.93;;;10.80;;
40675;SDS011;26359;48.750;9.314;2023-01-10T10:03:40;12.25;;;11.15;;
40675;SDS011;26359;48.750;9.314;2023-01-10T10:06:25;18.60;;;11.82;;
40675;SDS011;26359;48.750;9.314;2023-01-10T10:08:51;20.70;;;18.80;;
40675;SDS011;26359;48.750;9.314;2023-01-10T10:24:34;8.93;;;5.32;;
40675;SDS011;26359;48.750;9.314;2023-01-10T10:27:20;8.98;;;5.90;;
40675;SDS011;26359;48.750;9.314;2023-01-10T10:35:01;6.18;;;4.53;;
40675;SDS011;26359;48.750;9.314;2023-01-10T10:37:44;8.15;;;4.40;;
40675;SDS011;26359;48.750;9.314;2023-01-10T10:40:23;7.10;;;5.35;;
40675;SDS011;26359;48.750;9.314;2023-01-10T10:42:52;8.10;;;4.50;;
40675;SDS011;26359;48.750;9.314;2023-01-10T10:45:21;9.75;;;6.07;;
40675;SDS011;26359;48.750;9.314;2023-01-10T10:47:55;9.20;;;7.65;;
40675;SDS011;26359;48.750;9.314;2023-01-10T10:50:32;11.05;;;7.28;;
40675;SDS011;26359;48.750;9.314;2023-01-10T10:52:59;12.15;;;9.85;;
40675;SDS011;26359;48.750;9.314;2023-01-10T10:55:28;9.32;;;7.88;;
40675;SDS011;26359;48.750;9.314;2023-01-10T10:57:58;10.05;;;7.10;;
40675;SDS011;26359;48.750;9.314;2023-01-10T11:00:26;8.02;;;5.70;;
40675;SDS011;26359;48.750;9.314;2023-01-10T11:03:00;12.35;;;11.25;;
40675;SDS011;26359;48.750;9.314;2023-01-10T11:05:33;11.82;;;10.82;;
40675;SDS011;26359;48.750;9.314;2023-01-10T11:08:04;13.13;;;12.05;;
40675;SDS011;26359;48.750;9.314;2023-01-10T11:10:38;9.88;;;8.63;;
40675;SDS011;26359;48.750;9.314;2023-01-10T11:13:15;12.05;;;8.60;;
40675;SDS011;26359;48.750;9.314;2023-01-10T11:15:51;12.10;;;8.75;;
40675;SDS011;26359;48.750;9.314;2023-01-10T11:18:21;9.55;;;8.15;;
40675;SDS011;26359;48.750;9.314;2023-01-10T11:20:50;8.43;;;7.60;;
40675;SDS011;26359;48.750;9.314;2023-01-10T11:23:36;10.73;;;4.75;;
40675;SDS011;26359;48.750;9.314;2023-01-10T11:26:24;9.65;;;8.73;;
40675;SDS011;26359;48.750;9.314;2023-01-10T11:28:52;9.20;;;8.40;;
40675;SDS011;26359;48.750;9.314;2023-01-10T11:31:32;13.27;;;9.27;;
40675;SDS011;26359;48.750;9.314;2023-01-10T11:33:59;9.98;;;8.20;;
40675;SDS011;26359;48.750;9.314;2023-01-10T11:36:50;9.85;;;8.95;;
40675;SDS011;26359;48.750;9.314;2023-01-10T11:39:21;11.60;;;9.65;;
40675;SDS011;26359;48.750;9.314;2023-01-10T11:41:47;12.13;;;8.25;;
40675;SDS011;26359;48.750;9.314;2023-01-10T11:44:16;8.10;;;5.50;;
40675;SDS011;26359;48.750;9.314;2023-01-10T11:46:51;9.18;;;8.10;;
40675;SDS011;26359;48.750;9.314;2023-01-10T11:49:23;12.45;;;10.68;;
40675;SDS011;26359;48.750;9.314;2023-01-10T11:52:13;6.97;;;5.32;;
40675;SDS011;26359;48.750;9.314;2023-01-10T11:54:47;9.43;;;4.70;;
40675;SDS011;26359;48.750;9.314;2023-01-10T11:57:20;8.02;;;6.75;;
40675;SDS011;26359;48.750;9.314;2023-01-10T11:59:52;6.78;;;6.15;;
40675;SDS011;26359;48.750;9.314;2023-01-10T12:02:24;8.57;;;7.57;;
40675;SDS011;26359;48.750;9.314;2023-01-10T12:04:52;8.52;;;6.97;;
40675;SDS011;26359;48.750;9.314;2023-01-10T12:07:21;11.88;;;10.65;;
40675;SDS011;26359;48.750;9.314;2023-01-10T12:09:54;11.02;;;10.05;;
40675;SDS011;26359;48.750;9.314;2023-01-10T12:12:22;9.93;;;9.10;;
40675;SDS011;26359;48.750;9.314;2023-01-10T12:14:50;12.57;;;9.60;;
40675;SDS011;26359;48.750;9.314;2023-01-10T12:17:21;9.35;;;8.38;;
40675;SDS011;26359;48.750;9.314;2023-01-10T12:19:47;10.27;;;8.93;;
40675;SDS011;26359;48.750;9.314;2023-01-10T12:22:17;10.32;;;6.82;;
40675;SDS011;26359;48.750;9.314;2023-01-10T12:24:44;11.27;;;10.32;;
40675;SDS011;26359;48.750;9.314;2023-01-10T12:27:14;10.73;;;5.45;;
40675;SDS011;26359;48.750;9.314;2023-01-10T12:29:43;11.70;;;8.45;;
40675;SDS011;26359;48.750;9.314;2023-01-10T12:32:16;12.18;;;10.82;;
40675;SDS011;26359;48.750;9.314;2023-01-10T12:34:49;9.00;;;8.27;;
40675;SDS011;26359;48.750;9.314;2023-01-10T12:37:38;9.70;;;4.38;;
40675;SDS011;26359;48.750;9.314;2023-01-10T12:43:20;8.55;;;7.35;;
40675;SDS011;26359;48.750;9.314;2023-01-10T12:46:18;7.57;;;4.63;;
40675;SDS011;26359;48.750;9.314;2023-01-10T12:48:54;7.88;;;6.07;;
40675;SDS011;26359;48.750;9.314;2023-01-10T12:51:26;12.25;;;6.90;;
40675;SDS011;26359;48.750;9.314;2023-01-10T12:53:53;12.32;;;8.48;;
40675;SDS011;26359;48.750;9.314;2023-01-10T12:56:22;9.85;;;8.82;;
40675;SDS011;26359;48.750;9.314;2023-01-10T12:58:52;8.00;;;5.63;;
40675;SDS011;26359;48.750;9.314;2023-01-10T13:01:31;7.65;;;5.95;;
40675;SDS011;26359;48.750;9.314;2023-01-10T13:04:05;7.28;;;4.50;;
40675;SDS011;26359;48.750;9.314;2023-01-10T13:06:35;5.68;;;4.70;;
40675;SDS011;26359;48.750;9.314;2023-01-10T13:09:16;8.57;;;6.80;;
40675;SDS011;26359;48.750;9.314;2023-01-10T13:14:56;8.38;;;4.05;;
40675;SDS011;26359;48.750;9.314;2023-01-10T13:20:17;6.47;;;5.68;;
40675;SDS011;26359;48.750;9.314;2023-01-10T13:22:53;8.60;;;6.53;;
40675;SDS011;26359;48.750;9.314;2023-01-10T13:27:54;13.35;;;7.85;;
40675;SDS011;26359;48.750;9.314;2023-01-10T13:30:39;9.45;;;5.32;;
40675;SDS011;26359;48.750;9.314;2023-01-10T13:33:06;10.15;;;5.20;;
40675;SDS011;26359;48.750;9.314;2023-01-10T13:35:44;13.07;;;8.35;;
40675;SDS011;26359;48.750;9.314;2023-01-10T13:38:23;11.90;;;8.52;;
40675;SDS011;26359;48.750;9.314;2023-01-10T13:41:01;10.20;;;8.60;;
40675;SDS011;26359;48.750;9.314;2023-01-10T13:43:29;10.63;;;7.20;;
40675;SDS011;26359;48.750;9.314;2023-01-10T13:53:44;8.23;;;4.82;;
40675;SDS011;26359;48.750;9.314;2023-01-10T14:02:17;11.30;;;5.75;;
40675;SDS011;26359;48.750;9.314;2023-01-10T14:04:53;9.13;;;7.10;;
40675;SDS011;26359;48.750;9.314;2023-01-10T14:07:28;11.27;;;6.18;;
40675;SDS011;26359;48.750;9.314;2023-01-10T14:10:06;8.82;;;4.75;;
40675;SDS011;26359;48.750;9.314;2023-01-10T14:12:38;11.27;;;5.80;;
40675;SDS011;26359;48.750;9.314;2023-01-10T14:15:30;8.13;;;5.00;;
40675;SDS011;26359;48.750;9.314;2023-01-10T14:18:07;13.77;;;4.50;;
40675;SDS011;26359;48.750;9.314;2023-01-10T14:20:44;7.82;;;4.68;;
40675;SDS011;26359;48.750;9.314;2023-01-10T14:23:21;12.63;;;5.53;;
40675;SDS011;26359;48.750;9.314;2023-01-10T14:25:58;8.40;;;4.70;;
40675;SDS011;26359;48.750;9.314;2023-01-10T14:28:24;11.00;;;4.53;;
40675;SDS011;26359;48.750;9.314;2023-01-10T14:31:00;9.32;;;5.43;;
40675;SDS011;26359;48.750;9.314;2023-01-10T14:33:39;9.95;;;4.75;;
40675;SDS011;26359;48.750;9.314;2023-01-10T14:36:08;8.82;;;5.53;;
40675;SDS011;26359;48.750;9.314;2023-01-10T14:38:43;10.95;;;5.78;;
40675;SDS011;26359;48.750;9.314;2023-01-10T14:43:48;8.00;;;5.50;;
40675;SDS011;26359;48.750;9.314;2023-01-10T14:46:33;13.68;;;5.15;;
40675;SDS011;26359;48.750;9.314;2023-01-10T14:52:12;5.95;;;4.72;;
40675;SDS011;26359;48.750;9.314;2023-01-10T14:54:45;6.13;;;5.32;;
40675;SDS011;26359;48.750;9.314;2023-01-10T14:57:16;9.00;;;5.85;;
40675;SDS011;26359;48.750;9.314;2023-01-10T14:59:44;8.63;;;6.43;;
40675;SDS011;26359;48.750;9.314;2023-01-10T15:07:25;9.38;;;6.20;;
40675;SDS011;26359;48.750;9.314;2023-01-10T15:09:52;9.90;;;4.93;;
40675;SDS011;26359;48.750;9.314;2023-01-10T15:12:21;9.32;;;4.97;;
40675;SDS011;26359;48.750;9.314;2023-01-10T15:14:49;12.70;;;6.20;;
40675;SDS011;26359;48.750;9.314;2023-01-10T15:17:24;9.40;;;5.32;;
40675;SDS011;26359;48.750;9.314;2023-01-10T15:19:50;6.75;;;4.47;;
40675;SDS011;26359;48.750;9.314;2023-01-10T15:22:17;11.43;;;4.70;;
40675;SDS011;26359;48.750;9.314;2023-01-10T15:27:30;7.28;;;5.75;;
40675;SDS011;26359;48.750;9.314;2023-01-10T15:29:57;9.63;;;5.70;;
40675;SDS011;26359;48.750;9.314;2023-01-10T15:34:56;8.75;;;6.30;;
40675;SDS011;26359;48.750;9.314;2023-01-10T15:37:26;12.75;;;6.22;;
40675;SDS011;26359;48.750;9.314;2023-01-10T15:39:59;10.40;;;5.07;;
40675;SDS011;26359;48.750;9.314;2023-01-10T15:42:26;6.80;;;5.38;;
40675;SDS011;26359;48.750;9.314;2023-01-10T15:44:52;8.35;;;5.30;;
40675;SDS011;26359;48.750;9.314;2023-01-10T15:47:38;8.35;;;5.28;;
40675;SDS011;26359;48.750;9.314;2023-01-10T15:50:17;6.20;;;4.85;;
40675;SDS011;26359;48.750;9.314;2023-01-10T15:52:53;5.72;;;4.88;;
40675;SDS011;26359;48.750;9.314;2023-01-10T16:00:53;7.07;;;5.32;;
40675;SDS011;26359;48.750;9.314;2023-01-10T16:03:21;6.68;;;5.25;;
40675;SDS011;26359;48.750;9.314;2023-01-10T16:05:53;7.85;;;5.45;;
40675;SDS011;26359;48.750;9.314;2023-01-10T16:08:23;8.23;;;5.10;;
40675;SDS011;26359;48.750;9.314;2023-01-10T16:10:52;9.38;;;5.10;;
40675;SDS011;26359;48.750;9.314;2023-01-10T16:13:21;14.75;;;5.95;;
40675;SDS011;26359;48.750;9.314;2023-01-10T16:15:55;8.45;;;5.13;;
40675;SDS011;26359;48.750;9.314;2023-01-10T16:18:23;7.15;;;4.53;;
40675;SDS011;26359;48.750;9.314;2023-01-10T16:20:50;7.20;;;4.38;;
40675;SDS011;26359;48.750;9.314;2023-01-10T16:23:21;9.13;;;4.22;;
40675;SDS011;26359;48.750;9.314;2023-01-10T16:28:20;11.32;;;4.72;;
40675;SDS011;26359;48.750;9.314;2023-01-10T16:30:46;7.50;;;4.35;;
40675;SDS011;26359;48.750;9.314;2023-01-10T16:33:16;10.68;;;4.68;;
40675;SDS011;26359;48.750;9.314;2023-01-10T16:35:48;10.70;;;4.13;;
40675;SDS011;26359;48.750;9.314;2023-01-10T16:38:19;10.35;;;4.35;;